sensor_id;sensor_type;location;lat;lon;timestamp;P1;P2;P0
55911;PMS5003;41823;45.534;-73.332;2022-10-30T00:00:31;9;8;
55911;PMS5003;41823;45.534;-73.332;2022-10-30T00:03:00;7;7;
55911;PMS5003;41823;45.534;-73.332;2022-10-30T00:05:27;7;7;
55911;PMS5003;41823;45.534;-73.332;2022-10-30T00:07:55;7;7;
55911;PMS5003;41823;45.534;-73.332;2022-10-30T00:10:24;9;7;
55911;PMS5003;41823;45.534;-73.332;2022-10-30T00:12:57;8;7;
55911;PMS5003;41823;45.534;-73.332;2022-10-30T00:15:31;6;5;
55911;PMS5003;41823;45.534;-73.332;2022-10-30T00:18:00;218;198;
55911;PMS5003;41823;45.534;-73.332;2022-10-30T00:20:28;273;244;
55911;PMS5003;41823;45.534;-73.332;2022-10-30T00:22:56;364;325;
55911;PMS5003;41823;45.534;-73.332;2022-10-30T00:25:24;380;352;
55911;PMS5003;41823;45.534;-73.332;2022-10-30T00:27:52;292;274;
55911;PMS5003;41823;45.534;-73.332;2022-10-30T00:30:21;165;153;
55911;PMS5003;41823;45.534;-73.332;2022-10-30T00:32:49;102;95;
55911;PMS5003;41823;45.534;-73.332;2022-10-30T00:35:17;60;55;
55911;PMS5003;41823;45.534;-73.332;2022-10-30T00:37:45;34;33;
55911;PMS5003;41823;45.534;-73.332;2022-10-30T00:40:15;25;23;
55911;PMS5003;41823;45.534;-73.332;2022-10-30T00:42:44;18;16;
55911;PMS5003;41823;45.534;-73.332;2022-10-30T00:45:14;12;11;
55911;PMS5003;41823;45.534;-73.332;2022-10-30T00:47:44;11;11;
55911;PMS5003;41823;45.534;-73.332;2022-10-30T00:50:19;6;6;
55911;PMS5003;41823;45.534;-73.332;2022-10-30T00:52:51;7;7;
55911;PMS5003;41823;45.534;-73.332;2022-10-30T00:55:27;7;7;
55911;PMS5003;41823;45.534;-73.332;2022-10-30T00:58:01;6;6;
55911;PMS5003;41823;45.534;-73.332;2022-10-30T01:00:32;6;6;
55911;PMS5003;41823;45.534;-73.332;2022-10-30T01:03:04;6;6;
55911;PMS5003;41823;45.534;-73.332;2022-10-30T01:05:35;7;6;
55911;PMS5003;41823;45.534;-73.332;2022-10-30T01:08:05;7;7;
55911;PMS5003;41823;45.534;-73.332;2022-10-30T01:10:33;7;7;
55911;PMS5003;41823;45.534;-73.332;2022-10-30T01:13:04;8;7;
55911;PMS5003;41823;45.534;-73.332;2022-10-30T01:15:34;5;5;
55911;PMS5003;41823;45.534;-73.332;2022-10-30T01:18:15;7;6;
55911;PMS5003;41823;45.534;-73.332;2022-10-30T01:21:00;6;6;
55911;PMS5003;41823;45.534;-73.332;2022-10-30T01:23:40;6;6;
55911;PMS5003;41823;45.534;-73.332;2022-10-30T01:26:25;8;7;
55911;PMS5003;41823;45.534;-73.332;2022-10-30T01:29:09;5;5;
55911;PMS5003;41823;45.534;-73.332;2022-10-30T01:31:53;5;5;
55911;PMS5003;41823;45.534;-73.332;2022-10-30T01:34:38;5;4;
55911;PMS5003;41823;45.534;-73.332;2022-10-30T01:37:15;7;7;
55911;PMS5003;41823;45.534;-73.332;2022-10-30T01:39:51;7;7;
55911;PMS5003;41823;45.534;-73.332;2022-10-30T01:42:53;6;6;
55911;PMS5003;41823;45.534;-73.332;2022-10-30T01:45:25;5;5;
55911;PMS5003;41823;45.534;-73.332;2022-10-30T01:48:09;5;4;
55911;PMS5003;41823;45.534;-73.332;2022-10-30T01:50:49;5;5;
55911;PMS5003;41823;45.534;-73.332;2022-10-30T01:53:28;7;5;
55911;PMS5003;41823;45.534;-73.332;2022-10-30T01:56:09;5;5;
55911;PMS5003;41823;45.534;-73.332;2022-10-30T01:58:49;6;5;
55911;PMS5003;41823;45.534;-73.332;2022-10-30T02:01:26;7;5;
55911;PMS5003;41823;45.534;-73.332;2022-10-30T02:03:57;6;6;
55911;PMS5003;41823;45.534;-73.332;2022-10-30T02:06:26;5;5;
55911;PMS5003;41823;45.534;-73.332;2022-10-30T02:08:54;4;4;
55911;PMS5003;41823;45.534;-73.332;2022-10-30T02:11:23;4;4;
55911;PMS5003;41823;45.534;-73.332;2022-10-30T02:13:53;199;186;
55911;PMS5003;41823;45.534;-73.332;2022-10-30T02:16:23;476;410;
55911;PMS5003;41823;45.534;-73.332;2022-10-30T02:18:51;471;416;
55911;PMS5003;41823;45.534;-73.332;2022-10-30T02:21:19;371;331;
55911;PMS5003;41823;45.534;-73.332;2022-10-30T02:23:47;213;199;
55911;PMS5003;41823;45.534;-73.332;2022-10-30T02:26:15;135;128;
55911;PMS5003;41823;45.534;-73.332;2022-10-30T02:28:44;82;77;
55911;PMS5003;41823;45.534;-73.332;2022-10-30T02:31:12;50;45;
55911;PMS5003;41823;45.534;-73.332;2022-10-30T02:33:43;28;28;
55911;PMS5003;41823;45.534;-73.332;2022-10-30T02:36:12;17;16;
55911;PMS5003;41823;45.534;-73.332;2022-10-30T02:38:41;13;13;
55911;PMS5003;41823;45.534;-73.332;2022-10-30T02:41:10;12;12;
55911;PMS5003;41823;45.534;-73.332;2022-10-30T02:43:39;11;7;
55911;PMS5003;41823;45.534;-73.332;2022-10-30T02:46:07;5;5;
55911;PMS5003;41823;45.534;-73.332;2022-10-30T02:48:40;6;6;
55911;PMS5003;41823;45.534;-73.332;2022-10-30T02:51:08;6;6;
55911;PMS5003;41823;45.534;-73.332;2022-10-30T02:53:36;5;5;
55911;PMS5003;41823;45.534;-73.332;2022-10-30T02:56:06;6;5;
55911;PMS5003;41823;45.534;-73.332;2022-10-30T02:58:37;6;5;
55911;PMS5003;41823;45.534;-73.332;2022-10-30T03:01:06;6;6;
55911;PMS5003;41823;45.534;-73.332;2022-10-30T03:03:35;6;5;
55911;PMS5003;41823;45.534;-73.332;2022-10-30T03:06:05;6;5;
55911;PMS5003;41823;45.534;-73.332;2022-10-30T03:08:35;6;5;
55911;PMS5003;41823;45.534;-73.332;2022-10-30T03:11:06;4;4;
55911;PMS5003;41823;45.534;-73.332;2022-10-30T03:13:35;4;4;
55911;PMS5003;41823;45.534;-73.332;2022-10-30T03:16:07;5;3;
55911;PMS5003;41823;45.534;-73.332;2022-10-30T03:18:38;6;4;
55911;PMS5003;41823;45.534;-73.332;2022-10-30T03:21:07;4;4;
55911;PMS5003;41823;45.534;-73.332;2022-10-30T03:23:37;4;4;
55911;PMS5003;41823;45.534;-73.332;2022-10-30T03:26:05;3;2;
55911;PMS5003;41823;45.534;-73.332;2022-10-30T03:28:34;4;4;
55911;PMS5003;41823;45.534;-73.332;2022-10-30T03:31:04;4;4;
55911;PMS5003;41823;45.534;-73.332;2022-10-30T03:33:35;4;3;
55911;PMS5003;41823;45.534;-73.332;2022-10-30T03:36:04;3;3;
55911;PMS5003;41823;45.534;-73.332;2022-10-30T03:38:34;5;5;
55911;PMS5003;41823;45.534;-73.332;2022-10-30T03:41:03;4;4;
55911;PMS5003;41823;45.534;-73.332;2022-10-30T03:43:34;5;5;
55911;PMS5003;41823;45.534;-73.332;2022-10-30T03:46:04;322;291;
55911;PMS5003;41823;45.534;-73.332;2022-10-30T03:48:40;423;356;
55911;PMS5003;41823;45.534;-73.332;2022-10-30T03:51:09;455;390;
55911;PMS5003;41823;45.534;-73.332;2022-10-30T03:53:38;456;400;
55911;PMS5003;41823;45.534;-73.332;2022-10-30T03:56:06;279;248;
55911;PMS5003;41823;45.534;-73.332;2022-10-30T03:58:41;158;148;
55911;PMS5003;41823;45.534;-73.332;2022-10-30T04:01:10;95;87;
55911;PMS5003;41823;45.534;-73.332;2022-10-30T04:03:39;51;48;
55911;PMS5003;41823;45.534;-73.332;2022-10-30T04:06:07;39;34;
55911;PMS5003;41823;45.534;-73.332;2022-10-30T04:08:37;19;18;
55911;PMS5003;41823;45.534;-73.332;2022-10-30T04:11:08;13;13;
55911;PMS5003;41823;45.534;-73.332;2022-10-30T04:13:36;10;9;
55911;PMS5003;41823;45.534;-73.332;2022-10-30T04:16:07;10;9;
55911;PMS5003;41823;45.534;-73.332;2022-10-30T04:18:38;10;10;
55911;PMS5003;41823;45.534;-73.332;2022-10-30T04:21:07;7;7;
55911;PMS5003;41823;45.534;-73.332;2022-10-30T04:23:36;6;6;
55911;PMS5003;41823;45.534;-73.332;2022-10-30T04:26:04;7;5;
55911;PMS5003;41823;45.534;-73.332;2022-10-30T04:28:32;6;6;
55911;PMS5003;41823;45.534;-73.332;2022-10-30T04:31:00;4;4;
55911;PMS5003;41823;45.534;-73.332;2022-10-30T04:33:30;5;5;
55911;PMS5003;41823;45.534;-73.332;2022-10-30T04:35:57;7;7;
55911;PMS5003;41823;45.534;-73.332;2022-10-30T04:38:26;6;5;
55911;PMS5003;41823;45.534;-73.332;2022-10-30T04:40:55;6;5;
55911;PMS5003;41823;45.534;-73.332;2022-10-30T04:43:24;6;6;
55911;PMS5003;41823;45.534;-73.332;2022-10-30T04:45:53;5;5;
55911;PMS5003;41823;45.534;-73.332;2022-10-30T04:48:21;5;5;
55911;PMS5003;41823;45.534;-73.332;2022-10-30T04:50:49;5;5;
55911;PMS5003;41823;45.534;-73.332;2022-10-30T04:53:18;6;6;
55911;PMS5003;41823;45.534;-73.332;2022-10-30T04:55:46;7;6;
55911;PMS5003;41823;45.534;-73.332;2022-10-30T04:58:18;6;6;
55911;PMS5003;41823;45.534;-73.332;2022-10-30T05:00:47;8;7;
55911;PMS5003;41823;45.534;-73.332;2022-10-30T05:03:16;7;7;
55911;PMS5003;41823;45.534;-73.332;2022-10-30T05:05:46;8;7;
55911;PMS5003;41823;45.534;-73.332;2022-10-30T05:08:16;7;7;
55911;PMS5003;41823;45.534;-73.332;2022-10-30T05:10:45;5;5;
55911;PMS5003;41823;45.534;-73.332;2022-10-30T05:13:13;6;6;
55911;PMS5003;41823;45.534;-73.332;2022-10-30T05:15:42;7;4;
55911;PMS5003;41823;45.534;-73.332;2022-10-30T05:18:10;5;5;
55911;PMS5003;41823;45.534;-73.332;2022-10-30T05:20:38;8;8;
55911;PMS5003;41823;45.534;-73.332;2022-10-30T05:23:06;5;4;
55911;PMS5003;41823;45.534;-73.332;2022-10-30T05:25:34;9;8;
55911;PMS5003;41823;45.534;-73.332;2022-10-30T05:28:03;6;6;
55911;PMS5003;41823;45.534;-73.332;2022-10-30T05:30:33;8;6;
55911;PMS5003;41823;45.534;-73.332;2022-10-30T05:33:02;7;7;
55911;PMS5003;41823;45.534;-73.332;2022-10-30T05:35:32;8;8;
55911;PMS5003;41823;45.534;-73.332;2022-10-30T05:38:03;7;7;
55911;PMS5003;41823;45.534;-73.332;2022-10-30T05:40:32;6;6;
55911;PMS5003;41823;45.534;-73.332;2022-10-30T05:43:01;7;7;
55911;PMS5003;41823;45.534;-73.332;2022-10-30T05:45:31;7;7;
55911;PMS5003;41823;45.534;-73.332;2022-10-30T05:47:59;7;7;
55911;PMS5003;41823;45.534;-73.332;2022-10-30T05:50:29;6;6;
55911;PMS5003;41823;45.534;-73.332;2022-10-30T05:52:58;10;10;
55911;PMS5003;41823;45.534;-73.332;2022-10-30T05:55:27;294;266;
55911;PMS5003;41823;45.534;-73.332;2022-10-30T05:57:57;453;385;
55911;PMS5003;41823;45.534;-73.332;2022-10-30T06:00:27;545;472;
55911;PMS5003;41823;45.534;-73.332;2022-10-30T06:02:58;348;311;
55911;PMS5003;41823;45.534;-73.332;2022-10-30T06:05:34;212;191;
55911;PMS5003;41823;45.534;-73.332;2022-10-30T06:08:04;134;116;
55911;PMS5003;41823;45.534;-73.332;2022-10-30T06:10:33;79;73;
55911;PMS5003;41823;45.534;-73.332;2022-10-30T06:13:02;52;46;
55911;PMS5003;41823;45.534;-73.332;2022-10-30T06:15:32;33;30;
55911;PMS5003;41823;45.534;-73.332;2022-10-30T06:18:05;23;19;
55911;PMS5003;41823;45.534;-73.332;2022-10-30T06:20:34;14;13;
55911;PMS5003;41823;45.534;-73.332;2022-10-30T06:23:04;14;12;
55911;PMS5003;41823;45.534;-73.332;2022-10-30T06:25:39;9;9;
55911;PMS5003;41823;45.534;-73.332;2022-10-30T06:28:12;7;6;
55911;PMS5003;41823;45.534;-73.332;2022-10-30T06:30:41;9;8;
55911;PMS5003;41823;45.534;-73.332;2022-10-30T06:33:11;7;7;
55911;PMS5003;41823;45.534;-73.332;2022-10-30T06:35:40;8;8;
55911;PMS5003;41823;45.534;-73.332;2022-10-30T06:38:09;8;7;
55911;PMS5003;41823;45.534;-73.332;2022-10-30T06:40:40;6;6;
55911;PMS5003;41823;45.534;-73.332;2022-10-30T06:43:09;6;5;
55911;PMS5003;41823;45.534;-73.332;2022-10-30T06:45:38;7;7;
55911;PMS5003;41823;45.534;-73.332;2022-10-30T06:48:12;6;5;
55911;PMS5003;41823;45.534;-73.332;2022-10-30T06:50:43;5;5;
55911;PMS5003;41823;45.534;-73.332;2022-10-30T06:53:20;5;5;
55911;PMS5003;41823;45.534;-73.332;2022-10-30T06:55:57;5;5;
55911;PMS5003;41823;45.534;-73.332;2022-10-30T06:58:27;5;5;
55911;PMS5003;41823;45.534;-73.332;2022-10-30T07:00:58;3;3;
55911;PMS5003;41823;45.534;-73.332;2022-10-30T07:03:27;4;4;
55911;PMS5003;41823;45.534;-73.332;2022-10-30T07:05:56;6;6;
55911;PMS5003;41823;45.534;-73.332;2022-10-30T07:08:24;4;4;
55911;PMS5003;41823;45.534;-73.332;2022-10-30T07:10:55;7;7;
55911;PMS5003;41823;45.534;-73.332;2022-10-30T07:13:26;6;5;
55911;PMS5003;41823;45.534;-73.332;2022-10-30T07:15:55;5;4;
55911;PMS5003;41823;45.534;-73.332;2022-10-30T07:18:25;5;5;
55911;PMS5003;41823;45.534;-73.332;2022-10-30T07:20:54;6;6;
55911;PMS5003;41823;45.534;-73.332;2022-10-30T07:23:23;5;5;
55911;PMS5003;41823;45.534;-73.332;2022-10-30T07:25:52;4;4;
55911;PMS5003;41823;45.534;-73.332;2022-10-30T07:28:26;4;4;
55911;PMS5003;41823;45.534;-73.332;2022-10-30T07:30:57;6;6;
55911;PMS5003;41823;45.534;-73.332;2022-10-30T07:33:25;4;4;
55911;PMS5003;41823;45.534;-73.332;2022-10-30T07:35:54;2;2;
55911;PMS5003;41823;45.534;-73.332;2022-10-30T07:38:26;5;4;
55911;PMS5003;41823;45.534;-73.332;2022-10-30T07:40:56;4;4;
55911;PMS5003;41823;45.534;-73.332;2022-10-30T07:43:24;3;3;
55911;PMS5003;41823;45.534;-73.332;2022-10-30T07:45:53;4;4;
55911;PMS5003;41823;45.534;-73.332;2022-10-30T07:48:22;4;4;
55911;PMS5003;41823;45.534;-73.332;2022-10-30T07:50:51;5;5;
55911;PMS5003;41823;45.534;-73.332;2022-10-30T07:53:22;4;4;
55911;PMS5003;41823;45.534;-73.332;2022-10-30T07:55:50;4;3;
55911;PMS5003;41823;45.534;-73.332;2022-10-30T07:58:19;4;4;
55911;PMS5003;41823;45.534;-73.332;2022-10-30T08:00:48;4;3;
55911;PMS5003;41823;45.534;-73.332;2022-10-30T08:03:17;3;3;
55911;PMS5003;41823;45.534;-73.332;2022-10-30T08:05:46;3;3;
55911;PMS5003;41823;45.534;-73.332;2022-10-30T08:08:16;4;3;
55911;PMS5003;41823;45.534;-73.332;2022-10-30T08:10:45;3;3;
55911;PMS5003;41823;45.534;-73.332;2022-10-30T08:13:13;3;3;
55911;PMS5003;41823;45.534;-73.332;2022-10-30T08:15:43;3;3;
55911;PMS5003;41823;45.534;-73.332;2022-10-30T08:18:11;4;4;
55911;PMS5003;41823;45.534;-73.332;2022-10-30T08:20:41;3;3;
55911;PMS5003;41823;45.534;-73.332;2022-10-30T08:23:09;3;3;
55911;PMS5003;41823;45.534;-73.332;2022-10-30T08:25:38;4;3;
55911;PMS5003;41823;45.534;-73.332;2022-10-30T08:28:06;5;4;
55911;PMS5003;41823;45.534;-73.332;2022-10-30T08:30:36;3;3;
55911;PMS5003;41823;45.534;-73.332;2022-10-30T08:33:05;3;3;
55911;PMS5003;41823;45.534;-73.332;2022-10-30T08:35:36;2;2;
55911;PMS5003;41823;45.534;-73.332;2022-10-30T08:38:05;3;3;
55911;PMS5003;41823;45.534;-73.332;2022-10-30T08:40:33;3;3;
55911;PMS5003;41823;45.534;-73.332;2022-10-30T08:43:02;3;3;
55911;PMS5003;41823;45.534;-73.332;2022-10-30T08:45:29;2;2;
55911;PMS5003;41823;45.534;-73.332;2022-10-30T08:48:04;4;4;
55911;PMS5003;41823;45.534;-73.332;2022-10-30T08:50:33;2;2;
55911;PMS5003;41823;45.534;-73.332;2022-10-30T08:53:03;3;3;
55911;PMS5003;41823;45.534;-73.332;2022-10-30T08:55:33;4;3;
55911;PMS5003;41823;45.534;-73.332;2022-10-30T08:58:02;3;3;
55911;PMS5003;41823;45.534;-73.332;2022-10-30T09:00:31;3;3;
55911;PMS5003;41823;45.534;-73.332;2022-10-30T09:03:01;7;5;
55911;PMS5003;41823;45.534;-73.332;2022-10-30T09:05:30;3;3;
55911;PMS5003;41823;45.534;-73.332;2022-10-30T09:08:04;4;4;
55911;PMS5003;41823;45.534;-73.332;2022-10-30T09:10:33;4;4;
55911;PMS5003;41823;45.534;-73.332;2022-10-30T09:13:02;3;3;
55911;PMS5003;41823;45.534;-73.332;2022-10-30T09:15:30;2;2;
55911;PMS5003;41823;45.534;-73.332;2022-10-30T09:18:01;4;4;
55911;PMS5003;41823;45.534;-73.332;2022-10-30T09:20:30;2;2;
55911;PMS5003;41823;45.534;-73.332;2022-10-30T09:22:59;2;2;
55911;PMS5003;41823;45.534;-73.332;2022-10-30T09:25:28;3;2;
55911;PMS5003;41823;45.534;-73.332;2022-10-30T09:28:06;3;3;
55911;PMS5003;41823;45.534;-73.332;2022-10-30T09:30:36;3;3;
55911;PMS5003;41823;45.534;-73.332;2022-10-30T09:33:06;3;3;
55911;PMS5003;41823;45.534;-73.332;2022-10-30T09:35:36;4;3;
55911;PMS5003;41823;45.534;-73.332;2022-10-30T09:38:05;3;3;
55911;PMS5003;41823;45.534;-73.332;2022-10-30T09:40:38;3;3;
55911;PMS5003;41823;45.534;-73.332;2022-10-30T09:43:23;3;2;
55911;PMS5003;41823;45.534;-73.332;2022-10-30T09:46:05;2;2;
55911;PMS5003;41823;45.534;-73.332;2022-10-30T09:48:53;2;2;
55911;PMS5003;41823;45.534;-73.332;2022-10-30T09:52:44;3;3;
55911;PMS5003;41823;45.534;-73.332;2022-10-30T09:55:28;4;3;
55911;PMS5003;41823;45.534;-73.332;2022-10-30T09:58:12;2;2;
55911;PMS5003;41823;45.534;-73.332;2022-10-30T10:00:49;3;3;
55911;PMS5003;41823;45.534;-73.332;2022-10-30T10:03:28;2;2;
55911;PMS5003;41823;45.534;-73.332;2022-10-30T10:06:11;2;2;
55911;PMS5003;41823;45.534;-73.332;2022-10-30T10:08:51;2;2;
55911;PMS5003;41823;45.534;-73.332;2022-10-30T10:11:26;3;3;
55911;PMS5003;41823;45.534;-73.332;2022-10-30T10:14:02;3;2;
55911;PMS5003;41823;45.534;-73.332;2022-10-30T10:16:38;1;1;
55911;PMS5003;41823;45.534;-73.332;2022-10-30T10:19:12;4;4;
55911;PMS5003;41823;45.534;-73.332;2022-10-30T10:21:47;2;2;
55911;PMS5003;41823;45.534;-73.332;2022-10-30T10:24:23;1;1;
55911;PMS5003;41823;45.534;-73.332;2022-10-30T10:27:03;2;2;
55911;PMS5003;41823;45.534;-73.332;2022-10-30T10:29:45;3;2;
55911;PMS5003;41823;45.534;-73.332;2022-10-30T10:32:33;2;2;
55911;PMS5003;41823;45.534;-73.332;2022-10-30T10:35:27;4;4;
55911;PMS5003;41823;45.534;-73.332;2022-10-30T10:38:12;2;2;
55911;PMS5003;41823;45.534;-73.332;2022-10-30T10:40:53;4;3;
55911;PMS5003;41823;45.534;-73.332;2022-10-30T10:43:30;4;3;
55911;PMS5003;41823;45.534;-73.332;2022-10-30T10:46:15;3;3;
55911;PMS5003;41823;45.534;-73.332;2022-10-30T10:49:01;4;4;
55911;PMS5003;41823;45.534;-73.332;2022-10-30T10:51:44;3;3;
55911;PMS5003;41823;45.534;-73.332;2022-10-30T10:54:18;4;3;
55911;PMS5003;41823;45.534;-73.332;2022-10-30T10:56:51;5;5;
55911;PMS5003;41823;45.534;-73.332;2022-10-30T10:59:22;5;5;
55911;PMS5003;41823;45.534;-73.332;2022-10-30T11:01:57;4;4;
55911;PMS5003;41823;45.534;-73.332;2022-10-30T11:04:38;5;5;
55911;PMS5003;41823;45.534;-73.332;2022-10-30T11:07:11;5;5;
55911;PMS5003;41823;45.534;-73.332;2022-10-30T11:09:45;3;3;
55911;PMS5003;41823;45.534;-73.332;2022-10-30T11:12:16;5;5;
55911;PMS5003;41823;45.534;-73.332;2022-10-30T11:14:49;5;5;
55911;PMS5003;41823;45.534;-73.332;2022-10-30T11:17:18;5;4;
55911;PMS5003;41823;45.534;-73.332;2022-10-30T11:19:51;3;3;
55911;PMS5003;41823;45.534;-73.332;2022-10-30T11:22:27;4;4;
55911;PMS5003;41823;45.534;-73.332;2022-10-30T11:25:08;5;4;
55911;PMS5003;41823;45.534;-73.332;2022-10-30T11:27:46;4;4;
55911;PMS5003;41823;45.534;-73.332;2022-10-30T11:30:16;4;4;
55911;PMS5003;41823;45.534;-73.332;2022-10-30T11:32:46;4;4;
55911;PMS5003;41823;45.534;-73.332;2022-10-30T11:35:15;5;5;
55911;PMS5003;41823;45.534;-73.332;2022-10-30T11:37:45;5;5;
55911;PMS5003;41823;45.534;-73.332;2022-10-30T11:40:16;5;5;
55911;PMS5003;41823;45.534;-73.332;2022-10-30T11:42:46;4;4;
55911;PMS5003;41823;45.534;-73.332;2022-10-30T11:45:23;4;4;
55911;PMS5003;41823;45.534;-73.332;2022-10-30T11:47:54;4;3;
55911;PMS5003;41823;45.534;-73.332;2022-10-30T11:50:24;5;4;
55911;PMS5003;41823;45.534;-73.332;2022-10-30T11:52:55;3;3;
55911;PMS5003;41823;45.534;-73.332;2022-10-30T11:55:25;5;5;
55911;PMS5003;41823;45.534;-73.332;2022-10-30T11:57:58;5;5;
55911;PMS5003;41823;45.534;-73.332;2022-10-30T12:00:27;5;5;
55911;PMS5003;41823;45.534;-73.332;2022-10-30T12:02:58;6;5;
55911;PMS5003;41823;45.534;-73.332;2022-10-30T12:05:29;6;5;
55911;PMS5003;41823;45.534;-73.332;2022-10-30T12:08:32;5;5;
55911;PMS5003;41823;45.534;-73.332;2022-10-30T12:11:01;5;3;
55911;PMS5003;41823;45.534;-73.332;2022-10-30T12:13:35;4;4;
55911;PMS5003;41823;45.534;-73.332;2022-10-30T12:16:08;3;3;
55911;PMS5003;41823;45.534;-73.332;2022-10-30T12:18:51;4;4;
55911;PMS5003;41823;45.534;-73.332;2022-10-30T12:21:22;5;5;
55911;PMS5003;41823;45.534;-73.332;2022-10-30T12:23:53;5;5;
55911;PMS5003;41823;45.534;-73.332;2022-10-30T12:26:23;5;4;
55911;PMS5003;41823;45.534;-73.332;2022-10-30T12:28:56;4;4;
55911;PMS5003;41823;45.534;-73.332;2022-10-30T12:31:31;3;3;
55911;PMS5003;41823;45.534;-73.332;2022-10-30T12:34:06;5;5;
55911;PMS5003;41823;45.534;-73.332;2022-10-30T12:36:44;4;4;
55911;PMS5003;41823;45.534;-73.332;2022-10-30T12:39:20;5;4;
55911;PMS5003;41823;45.534;-73.332;2022-10-30T12:41:56;2;2;
55911;PMS5003;41823;45.534;-73.332;2022-10-30T12:44:28;4;4;
55911;PMS5003;41823;45.534;-73.332;2022-10-30T12:47:02;4;3;
55911;PMS5003;41823;45.534;-73.332;2022-10-30T12:49:36;2;2;
55911;PMS5003;41823;45.534;-73.332;2022-10-30T12:52:10;4;4;
55911;PMS5003;41823;45.534;-73.332;2022-10-30T12:54:42;3;3;
55911;PMS5003;41823;45.534;-73.332;2022-10-30T12:57:18;5;5;
55911;PMS5003;41823;45.534;-73.332;2022-10-30T12:59:54;4;3;
55911;PMS5003;41823;45.534;-73.332;2022-10-30T13:02:46;5;4;
55911;PMS5003;41823;45.534;-73.332;2022-10-30T13:05:25;3;3;
55911;PMS5003;41823;45.534;-73.332;2022-10-30T13:08:06;4;4;
55911;PMS5003;41823;45.534;-73.332;2022-10-30T13:10:44;5;4;
55911;PMS5003;41823;45.534;-73.332;2022-10-30T13:13:19;4;4;
55911;PMS5003;41823;45.534;-73.332;2022-10-30T13:15:51;4;3;
55911;PMS5003;41823;45.534;-73.332;2022-10-30T13:18:24;3;3;
55911;PMS5003;41823;45.534;-73.332;2022-10-30T13:20:57;5;5;
55911;PMS5003;41823;45.534;-73.332;2022-10-30T13:23:34;5;4;
55911;PMS5003;41823;45.534;-73.332;2022-10-30T13:26:12;4;4;
55911;PMS5003;41823;45.534;-73.332;2022-10-30T13:28:50;4;3;
55911;PMS5003;41823;45.534;-73.332;2022-10-30T13:31:27;5;5;
55911;PMS5003;41823;45.534;-73.332;2022-10-30T13:34:05;4;3;
55911;PMS5003;41823;45.534;-73.332;2022-10-30T13:36:49;3;3;
55911;PMS5003;41823;45.534;-73.332;2022-10-30T13:39:22;4;4;
55911;PMS5003;41823;45.534;-73.332;2022-10-30T13:42:00;3;3;
55911;PMS5003;41823;45.534;-73.332;2022-10-30T13:44:41;4;3;
55911;PMS5003;41823;45.534;-73.332;2022-10-30T13:47:20;2;2;
55911;PMS5003;41823;45.534;-73.332;2022-10-30T13:50:01;3;3;
55911;PMS5003;41823;45.534;-73.332;2022-10-30T13:52:43;3;3;
55911;PMS5003;41823;45.534;-73.332;2022-10-30T13:55:16;3;2;
55911;PMS5003;41823;45.534;-73.332;2022-10-30T13:57:50;3;3;
55911;PMS5003;41823;45.534;-73.332;2022-10-30T14:00:26;4;4;
55911;PMS5003;41823;45.534;-73.332;2022-10-30T14:03:15;4;3;
55911;PMS5003;41823;45.534;-73.332;2022-10-30T14:05:54;4;4;
55911;PMS5003;41823;45.534;-73.332;2022-10-30T14:08:35;4;4;
55911;PMS5003;41823;45.534;-73.332;2022-10-30T14:11:09;3;3;
55911;PMS5003;41823;45.534;-73.332;2022-10-30T14:13:51;2;2;
55911;PMS5003;41823;45.534;-73.332;2022-10-30T14:16:38;4;4;
55911;PMS5003;41823;45.534;-73.332;2022-10-30T14:19:08;4;4;
55911;PMS5003;41823;45.534;-73.332;2022-10-30T14:21:39;4;4;
55911;PMS5003;41823;45.534;-73.332;2022-10-30T14:24:11;4;3;
55911;PMS5003;41823;45.534;-73.332;2022-10-30T14:26:43;1;1;
55911;PMS5003;41823;45.534;-73.332;2022-10-30T14:29:47;1;1;
55911;PMS5003;41823;45.534;-73.332;2022-10-30T14:32:34;4;4;
55911;PMS5003;41823;45.534;-73.332;2022-10-30T14:35:32;3;3;
55911;PMS5003;41823;45.534;-73.332;2022-10-30T14:38:35;3;3;
55911;PMS5003;41823;45.534;-73.332;2022-10-30T14:41:20;3;2;
55911;PMS5003;41823;45.534;-73.332;2022-10-30T14:44:00;3;2;
55911;PMS5003;41823;45.534;-73.332;2022-10-30T14:46:56;3;3;
55911;PMS5003;41823;45.534;-73.332;2022-10-30T14:49:35;3;3;
55911;PMS5003;41823;45.534;-73.332;2022-10-30T14:52:13;2;2;
55911;PMS5003;41823;45.534;-73.332;2022-10-30T14:54:47;2;2;
55911;PMS5003;41823;45.534;-73.332;2022-10-30T14:57:43;3;3;
55911;PMS5003;41823;45.534;-73.332;2022-10-30T15:00:27;3;3;
55911;PMS5003;41823;45.534;-73.332;2022-10-30T15:03:03;3;3;
55911;PMS5003;41823;45.534;-73.332;2022-10-30T15:05:38;2;2;
55911;PMS5003;41823;45.534;-73.332;2022-10-30T15:08:17;1;1;
55911;PMS5003;41823;45.534;-73.332;2022-10-30T15:11:30;3;3;
55911;PMS5003;41823;45.534;-73.332;2022-10-30T15:14:11;3;3;
55911;PMS5003;41823;45.534;-73.332;2022-10-30T15:16:46;3;3;
55911;PMS5003;41823;45.534;-73.332;2022-10-30T15:19:17;3;3;
55911;PMS5003;41823;45.534;-73.332;2022-10-30T15:21:48;2;2;
55911;PMS5003;41823;45.534;-73.332;2022-10-30T15:24:20;2;2;
55911;PMS5003;41823;45.534;-73.332;2022-10-30T15:26:51;2;2;
55911;PMS5003;41823;45.534;-73.332;2022-10-30T15:29:21;2;2;
55911;PMS5003;41823;45.534;-73.332;2022-10-30T15:32:00;2;2;
55911;PMS5003;41823;45.534;-73.332;2022-10-30T15:34:30;2;1;
55911;PMS5003;41823;45.534;-73.332;2022-10-30T15:36:58;1;1;
55911;PMS5003;41823;45.534;-73.332;2022-10-30T15:39:35;2;2;
55911;PMS5003;41823;45.534;-73.332;2022-10-30T15:42:03;2;2;
55911;PMS5003;41823;45.534;-73.332;2022-10-30T15:44:31;2;2;
55911;PMS5003;41823;45.534;-73.332;2022-10-30T15:47:02;3;3;
55911;PMS5003;41823;45.534;-73.332;2022-10-30T15:49:32;1;1;
55911;PMS5003;41823;45.534;-73.332;2022-10-30T15:52:03;2;2;
55911;PMS5003;41823;45.534;-73.332;2022-10-30T15:54:45;2;2;
55911;PMS5003;41823;45.534;-73.332;2022-10-30T15:57:29;2;2;
55911;PMS5003;41823;45.534;-73.332;2022-10-30T16:00:00;3;2;
55911;PMS5003;41823;45.534;-73.332;2022-10-30T16:02:31;1;1;
55911;PMS5003;41823;45.534;-73.332;2022-10-30T16:04:59;3;3;
55911;PMS5003;41823;45.534;-73.332;2022-10-30T16:07:27;2;2;
55911;PMS5003;41823;45.534;-73.332;2022-10-30T16:09:57;3;2;
55911;PMS5003;41823;45.534;-73.332;2022-10-30T16:12:26;2;2;
55911;PMS5003;41823;45.534;-73.332;2022-10-30T16:14:56;3;3;
55911;PMS5003;41823;45.534;-73.332;2022-10-30T16:17:27;4;3;
55911;PMS5003;41823;45.534;-73.332;2022-10-30T16:19:56;2;2;
55911;PMS5003;41823;45.534;-73.332;2022-10-30T16:22:30;2;1;
55911;PMS5003;41823;45.534;-73.332;2022-10-30T16:25:04;2;2;
55911;PMS5003;41823;45.534;-73.332;2022-10-30T16:27:33;3;3;
55911;PMS5003;41823;45.534;-73.332;2022-10-30T16:30:11;1;1;
55911;PMS5003;41823;45.534;-73.332;2022-10-30T16:32:41;2;2;
55911;PMS5003;41823;45.534;-73.332;2022-10-30T16:35:16;3;3;
55911;PMS5003;41823;45.534;-73.332;2022-10-30T16:37:47;3;3;
55911;PMS5003;41823;45.534;-73.332;2022-10-30T16:40:17;2;2;
55911;PMS5003;41823;45.534;-73.332;2022-10-30T16:42:48;4;3;
55911;PMS5003;41823;45.534;-73.332;2022-10-30T16:46:10;3;3;
55911;PMS5003;41823;45.534;-73.332;2022-10-30T16:49:02;3;3;
55911;PMS5003;41823;45.534;-73.332;2022-10-30T16:51:33;3;3;